Terminal Aerodrome Forecast
Issued by NWS Jacksonville, FL

Home | Current Version | Previous Version | Text Only | Print | Product List | Glossary On
Versions: 1 2 3 4 5 6 7 8 9 10 11 12 13 14 15 16 17 18 19 20 21 22 23 24 25 26 27 28 29 30 31 32 33
671
FTUS42 KJAX 230520
TAFSSI
TAF
KSSI 230520Z 2306/2406 25012G18KT P6SM SCT050 BKN100 BKN200
      TEMPO 2306/2308 6SM SHRA SCT025 BKN050
     FM231400 26018G28KT P6SM OVC025
     FM232300 27015G25KT P6SM SCT025 SCT250=

USA.gov is the U.S. government's official web portal to all federal, state and local government web resources and services.